sensor_id;sensor_type;location;lat;lon;timestamp;temperature;humidity
13711;DHT22;6927;51.256;9.410;2022-08-19T00:01:20;20.50;1.00
13711;DHT22;6927;51.256;9.410;2022-08-19T00:03:45;20.60;1.00
13711;DHT22;6927;51.256;9.410;2022-08-19T00:06:11;20.60;1.00
13711;DHT22;6927;51.256;9.410;2022-08-19T00:08:37;20.60;1.00
13711;DHT22;6927;51.256;9.410;2022-08-19T00:11:06;20.70;1.00
13711;DHT22;6927;51.256;9.410;2022-08-19T00:13:34;20.70;1.00
13711;DHT22;6927;51.256;9.410;2022-08-19T00:16:00;20.70;1.00
13711;DHT22;6927;51.256;9.410;2022-08-19T00:18:35;20.70;1.00
13711;DHT22;6927;51.256;9.410;2022-08-19T00:21:01;20.60;1.00
13711;DHT22;6927;51.256;9.410;2022-08-19T00:23:33;20.60;1.00
13711;DHT22;6927;51.256;9.410;2022-08-19T00:26:02;20.60;1.00
13711;DHT22;6927;51.256;9.410;2022-08-19T00:28:28;20.70;1.00
13711;DHT22;6927;51.256;9.410;2022-08-19T00:30:56;20.70;1.00
13711;DHT22;6927;51.256;9.410;2022-08-19T00:33:22;20.70;1.00
13711;DHT22;6927;51.256;9.410;2022-08-19T00:35:47;20.60;1.00
13711;DHT22;6927;51.256;9.410;2022-08-19T00:38:13;20.60;1.00
13711;DHT22;6927;51.256;9.410;2022-08-19T00:40:44;20.60;1.00
13711;DHT22;6927;51.256;9.410;2022-08-19T00:43:12;20.60;1.00
13711;DHT22;6927;51.256;9.410;2022-08-19T00:45:39;20.50;36.50
13711;DHT22;6927;51.256;9.410;2022-08-19T00:48:07;20.50;18.80
13711;DHT22;6927;51.256;9.410;2022-08-19T00:50:35;20.50;49.10
13711;DHT22;6927;51.256;9.410;2022-08-19T00:53:04;20.40;99.90
13711;DHT22;6927;51.256;9.410;2022-08-19T00:55:35;20.40;99.90
13711;DHT22;6927;51.256;9.410;2022-08-19T00:58:10;20.50;99.90
13711;DHT22;6927;51.256;9.410;2022-08-19T01:00:37;20.40;99.90
13711;DHT22;6927;51.256;9.410;2022-08-19T01:03:08;20.40;99.90
13711;DHT22;6927;51.256;9.410;2022-08-19T01:05:37;20.40;99.90
13711;DHT22;6927;51.256;9.410;2022-08-19T01:08:05;20.30;99.90
13711;DHT22;6927;51.256;9.410;2022-08-19T01:10:35;20.30;99.90
13711;DHT22;6927;51.256;9.410;2022-08-19T01:13:06;20.30;99.90
13711;DHT22;6927;51.256;9.410;2022-08-19T01:15:38;20.30;99.90
13711;DHT22;6927;51.256;9.410;2022-08-19T01:18:08;20.30;99.90
13711;DHT22;6927;51.256;9.410;2022-08-19T01:20:35;20.30;99.90
13711;DHT22;6927;51.256;9.410;2022-08-19T01:23:01;20.20;99.90
13711;DHT22;6927;51.256;9.410;2022-08-19T01:25:48;20.20;99.90
13711;DHT22;6927;51.256;9.410;2022-08-19T01:28:21;20.20;99.90
13711;DHT22;6927;51.256;9.410;2022-08-19T01:30:47;20.20;99.90
13711;DHT22;6927;51.256;9.410;2022-08-19T01:33:14;20.30;99.90
13711;DHT22;6927;51.256;9.410;2022-08-19T01:35:41;20.30;99.90
13711;DHT22;6927;51.256;9.410;2022-08-19T01:38:18;20.30;99.90
13711;DHT22;6927;51.256;9.410;2022-08-19T01:40:44;20.30;99.90
13711;DHT22;6927;51.256;9.410;2022-08-19T01:43:09;20.30;99.90
13711;DHT22;6927;51.256;9.410;2022-08-19T01:45:36;20.20;99.90
13711;DHT22;6927;51.256;9.410;2022-08-19T01:48:03;20.20;99.90
13711;DHT22;6927;51.256;9.410;2022-08-19T01:50:33;20.20;99.90
13711;DHT22;6927;51.256;9.410;2022-08-19T01:53:00;20.20;99.90
13711;DHT22;6927;51.256;9.410;2022-08-19T01:55:26;20.20;99.90
13711;DHT22;6927;51.256;9.410;2022-08-19T01:57:55;20.20;99.90
13711;DHT22;6927;51.256;9.410;2022-08-19T02:00:25;20.20;99.90
13711;DHT22;6927;51.256;9.410;2022-08-19T02:02:51;20.20;99.90
13711;DHT22;6927;51.256;9.410;2022-08-19T02:05:17;20.20;99.90
13711;DHT22;6927;51.256;9.410;2022-08-19T02:07:44;20.10;99.90
13711;DHT22;6927;51.256;9.410;2022-08-19T02:10:14;20.10;99.90
13711;DHT22;6927;51.256;9.410;2022-08-19T02:12:41;20.10;99.90
13711;DHT22;6927;51.256;9.410;2022-08-19T02:15:07;20.10;99.90
13711;DHT22;6927;51.256;9.410;2022-08-19T02:17:33;20.10;99.90
13711;DHT22;6927;51.256;9.410;2022-08-19T02:19:59;20.10;99.90
13711;DHT22;6927;51.256;9.410;2022-08-19T02:22:26;20.10;99.90
13711;DHT22;6927;51.256;9.410;2022-08-19T02:24:52;20.10;99.90
13711;DHT22;6927;51.256;9.410;2022-08-19T02:27:18;20.10;99.90
13711;DHT22;6927;51.256;9.410;2022-08-19T02:29:46;20.10;99.90
13711;DHT22;6927;51.256;9.410;2022-08-19T02:32:12;20.10;99.90
13711;DHT22;6927;51.256;9.410;2022-08-19T02:34:37;20.10;99.90
13711;DHT22;6927;51.256;9.410;2022-08-19T02:37:03;20.00;99.90
13711;DHT22;6927;51.256;9.410;2022-08-19T02:39:28;20.00;99.90
13711;DHT22;6927;51.256;9.410;2022-08-19T02:41:54;20.00;99.90
13711;DHT22;6927;51.256;9.410;2022-08-19T02:44:19;20.00;99.90
13711;DHT22;6927;51.256;9.410;2022-08-19T02:46:46;20.00;99.90
13711;DHT22;6927;51.256;9.410;2022-08-19T02:49:12;20.00;99.90
13711;DHT22;6927;51.256;9.410;2022-08-19T02:51:40;20.00;99.90
13711;DHT22;6927;51.256;9.410;2022-08-19T02:54:07;20.00;99.90
13711;DHT22;6927;51.256;9.410;2022-08-19T02:56:37;20.00;99.90
13711;DHT22;6927;51.256;9.410;2022-08-19T02:59:04;20.00;99.90
13711;DHT22;6927;51.256;9.410;2022-08-19T03:01:36;20.00;99.90
13711;DHT22;6927;51.256;9.410;2022-08-19T03:04:04;19.90;99.90
13711;DHT22;6927;51.256;9.410;2022-08-19T03:06:30;19.90;99.90
13711;DHT22;6927;51.256;9.410;2022-08-19T03:08:57;19.90;99.90
13711;DHT22;6927;51.256;9.410;2022-08-19T03:11:31;19.90;99.90
13711;DHT22;6927;51.256;9.410;2022-08-19T03:14:15;19.90;99.90
13711;DHT22;6927;51.256;9.410;2022-08-19T03:17:03;19.90;99.90
13711;DHT22;6927;51.256;9.410;2022-08-19T03:22:23;19.90;99.90
13711;DHT22;6927;51.256;9.410;2022-08-19T03:27:27;19.80;99.90
13711;DHT22;6927;51.256;9.410;2022-08-19T03:29:52;19.80;99.90
13711;DHT22;6927;51.256;9.410;2022-08-19T03:32:18;19.80;99.90
13711;DHT22;6927;51.256;9.410;2022-08-19T03:34:44;19.90;99.90
13711;DHT22;6927;51.256;9.410;2022-08-19T03:37:10;19.80;99.90
13711;DHT22;6927;51.256;9.410;2022-08-19T03:39:40;19.80;1.00
13711;DHT22;6927;51.256;9.410;2022-08-19T03:42:06;19.90;99.90
13711;DHT22;6927;51.256;9.410;2022-08-19T03:44:32;19.80;99.90
13711;DHT22;6927;51.256;9.410;2022-08-19T03:47:03;19.80;1.00
13711;DHT22;6927;51.256;9.410;2022-08-19T03:49:31;19.90;99.90
13711;DHT22;6927;51.256;9.410;2022-08-19T03:51:58;19.90;99.90
13711;DHT22;6927;51.256;9.410;2022-08-19T03:54:26;19.90;1.00
13711;DHT22;6927;51.256;9.410;2022-08-19T03:56:53;19.90;99.90
13711;DHT22;6927;51.256;9.410;2022-08-19T03:59:31;19.90;99.90
13711;DHT22;6927;51.256;9.410;2022-08-19T04:01:59;19.90;1.00
13711;DHT22;6927;51.256;9.410;2022-08-19T04:04:26;19.90;99.90
13711;DHT22;6927;51.256;9.410;2022-08-19T04:06:52;19.90;99.90
13711;DHT22;6927;51.256;9.410;2022-08-19T04:09:18;19.90;99.90
13711;DHT22;6927;51.256;9.410;2022-08-19T04:11:47;19.90;1.00
13711;DHT22;6927;51.256;9.410;2022-08-19T04:14:17;19.90;1.00
13711;DHT22;6927;51.256;9.410;2022-08-19T04:16:44;19.80;1.00
13711;DHT22;6927;51.256;9.410;2022-08-19T04:19:10;19.90;99.90
13711;DHT22;6927;51.256;9.410;2022-08-19T04:21:36;19.80;76.10
13711;DHT22;6927;51.256;9.410;2022-08-19T04:24:02;19.80;1.00
13711;DHT22;6927;51.256;9.410;2022-08-19T04:26:31;19.80;99.90
13711;DHT22;6927;51.256;9.410;2022-08-19T04:28:58;19.80;1.00
13711;DHT22;6927;51.256;9.410;2022-08-19T04:31:27;19.70;1.00
13711;DHT22;6927;51.256;9.410;2022-08-19T04:33:54;19.70;99.90
13711;DHT22;6927;51.256;9.410;2022-08-19T04:36:26;19.70;1.00
13711;DHT22;6927;51.256;9.410;2022-08-19T04:39:00;19.70;1.00
13711;DHT22;6927;51.256;9.410;2022-08-19T04:41:27;19.60;1.00
13711;DHT22;6927;51.256;9.410;2022-08-19T04:44:11;19.60;1.00
13711;DHT22;6927;51.256;9.410;2022-08-19T04:46:38;19.60;99.90
13711;DHT22;6927;51.256;9.410;2022-08-19T04:49:04;19.60;99.90
13711;DHT22;6927;51.256;9.410;2022-08-19T04:51:32;19.60;99.90
13711;DHT22;6927;51.256;9.410;2022-08-19T04:53:58;19.60;1.00
13711;DHT22;6927;51.256;9.410;2022-08-19T04:56:25;19.60;1.00
13711;DHT22;6927;51.256;9.410;2022-08-19T04:58:53;19.60;99.90
13711;DHT22;6927;51.256;9.410;2022-08-19T05:01:22;19.60;99.90
13711;DHT22;6927;51.256;9.410;2022-08-19T05:03:48;19.60;99.90
13711;DHT22;6927;51.256;9.410;2022-08-19T05:06:15;19.60;1.00
13711;DHT22;6927;51.256;9.410;2022-08-19T05:08:42;19.60;1.00
13711;DHT22;6927;51.256;9.410;2022-08-19T05:11:15;19.60;99.90
13711;DHT22;6927;51.256;9.410;2022-08-19T05:13:42;19.60;1.00
13711;DHT22;6927;51.256;9.410;2022-08-19T05:16:08;19.70;99.90
13711;DHT22;6927;51.256;9.410;2022-08-19T05:18:34;19.70;1.00
13711;DHT22;6927;51.256;9.410;2022-08-19T05:21:20;19.70;99.90
13711;DHT22;6927;51.256;9.410;2022-08-19T05:24:05;19.80;1.00
13711;DHT22;6927;51.256;9.410;2022-08-19T05:26:36;19.80;1.00
13711;DHT22;6927;51.256;9.410;2022-08-19T05:29:01;19.90;1.00
13711;DHT22;6927;51.256;9.410;2022-08-19T05:31:27;19.90;1.00
13711;DHT22;6927;51.256;9.410;2022-08-19T05:33:53;19.90;99.90
13711;DHT22;6927;51.256;9.410;2022-08-19T05:36:19;20.00;1.00
13711;DHT22;6927;51.256;9.410;2022-08-19T05:38:45;20.10;1.00
13711;DHT22;6927;51.256;9.410;2022-08-19T05:41:12;20.10;1.00
13711;DHT22;6927;51.256;9.410;2022-08-19T05:43:38;20.20;1.00
13711;DHT22;6927;51.256;9.410;2022-08-19T05:46:06;20.30;99.90
13711;DHT22;6927;51.256;9.410;2022-08-19T05:48:33;20.30;1.00
13711;DHT22;6927;51.256;9.410;2022-08-19T05:51:07;20.30;91.10
13711;DHT22;6927;51.256;9.410;2022-08-19T05:53:33;20.30;99.90
13711;DHT22;6927;51.256;9.410;2022-08-19T05:56:06;20.40;2.00
13711;DHT22;6927;51.256;9.410;2022-08-19T05:58:33;20.40;1.00
13711;DHT22;6927;51.256;9.410;2022-08-19T06:00:59;20.40;99.90
13711;DHT22;6927;51.256;9.410;2022-08-19T06:03:30;20.50;99.90
13711;DHT22;6927;51.256;9.410;2022-08-19T06:05:56;20.70;1.00
13711;DHT22;6927;51.256;9.410;2022-08-19T06:08:23;20.80;1.00
13711;DHT22;6927;51.256;9.410;2022-08-19T06:10:49;20.80;1.00
13711;DHT22;6927;51.256;9.410;2022-08-19T06:13:14;20.90;1.00
13711;DHT22;6927;51.256;9.410;2022-08-19T06:15:40;21.00;99.90
13711;DHT22;6927;51.256;9.410;2022-08-19T06:18:09;21.00;1.00
13711;DHT22;6927;51.256;9.410;2022-08-19T06:20:34;21.10;1.00
13711;DHT22;6927;51.256;9.410;2022-08-19T06:23:00;21.20;99.90
13711;DHT22;6927;51.256;9.410;2022-08-19T06:25:25;21.30;99.90
13711;DHT22;6927;51.256;9.410;2022-08-19T06:27:50;21.40;1.00
13711;DHT22;6927;51.256;9.410;2022-08-19T06:30:16;21.40;99.90
13711;DHT22;6927;51.256;9.410;2022-08-19T06:32:42;21.50;99.90
13711;DHT22;6927;51.256;9.410;2022-08-19T06:35:08;21.60;99.90
13711;DHT22;6927;51.256;9.410;2022-08-19T06:37:33;21.60;1.00
13711;DHT22;6927;51.256;9.410;2022-08-19T06:39:59;21.60;1.00
13711;DHT22;6927;51.256;9.410;2022-08-19T06:42:24;21.70;99.90
13711;DHT22;6927;51.256;9.410;2022-08-19T06:44:50;21.80;99.90
13711;DHT22;6927;51.256;9.410;2022-08-19T06:47:19;21.90;25.60
13711;DHT22;6927;51.256;9.410;2022-08-19T06:49:44;22.00;33.30
13711;DHT22;6927;51.256;9.410;2022-08-19T06:52:11;22.20;1.00
13711;DHT22;6927;51.256;9.410;2022-08-19T06:54:40;22.50;1.00
13711;DHT22;6927;51.256;9.410;2022-08-19T06:57:08;22.50;1.00
13711;DHT22;6927;51.256;9.410;2022-08-19T06:59:38;22.40;1.00
13711;DHT22;6927;51.256;9.410;2022-08-19T07:02:06;22.50;42.80
13711;DHT22;6927;51.256;9.410;2022-08-19T07:04:32;22.30;1.00
13711;DHT22;6927;51.256;9.410;2022-08-19T07:07:10;22.20;1.00
13711;DHT22;6927;51.256;9.410;2022-08-19T07:09:41;22.10;1.00
13711;DHT22;6927;51.256;9.410;2022-08-19T07:12:09;22.00;1.00
13711;DHT22;6927;51.256;9.410;2022-08-19T07:14:36;21.90;1.00
13711;DHT22;6927;51.256;9.410;2022-08-19T07:17:05;22.00;99.90
13711;DHT22;6927;51.256;9.410;2022-08-19T07:19:31;22.30;1.00
13711;DHT22;6927;51.256;9.410;2022-08-19T07:21:57;22.50;1.00
13711;DHT22;6927;51.256;9.410;2022-08-19T07:24:25;22.40;1.00
13711;DHT22;6927;51.256;9.410;2022-08-19T07:26:53;22.40;1.00
13711;DHT22;6927;51.256;9.410;2022-08-19T07:29:20;22.30;1.00
13711;DHT22;6927;51.256;9.410;2022-08-19T07:31:49;22.50;1.00
13711;DHT22;6927;51.256;9.410;2022-08-19T07:34:14;22.60;1.00
13711;DHT22;6927;51.256;9.410;2022-08-19T07:36:42;22.70;1.00
13711;DHT22;6927;51.256;9.410;2022-08-19T07:39:15;22.70;1.00
13711;DHT22;6927;51.256;9.410;2022-08-19T07:41:40;22.70;1.00
13711;DHT22;6927;51.256;9.410;2022-08-19T07:44:07;22.70;1.00
13711;DHT22;6927;51.256;9.410;2022-08-19T07:46:36;22.70;1.00
13711;DHT22;6927;51.256;9.410;2022-08-19T07:49:03;22.90;1.00
13711;DHT22;6927;51.256;9.410;2022-08-19T07:51:29;23.20;1.00
13711;DHT22;6927;51.256;9.410;2022-08-19T07:53:55;23.40;99.90
13711;DHT22;6927;51.256;9.410;2022-08-19T07:56:21;23.90;99.90
13711;DHT22;6927;51.256;9.410;2022-08-19T07:58:49;24.00;99.90
13711;DHT22;6927;51.256;9.410;2022-08-19T08:01:19;24.50;99.90
13711;DHT22;6927;51.256;9.410;2022-08-19T08:03:45;25.50;1.30
13711;DHT22;6927;51.256;9.410;2022-08-19T08:06:29;26.10;1.00
13711;DHT22;6927;51.256;9.410;2022-08-19T08:09:18;26.70;1.00
13711;DHT22;6927;51.256;9.410;2022-08-19T08:11:50;27.10;1.00
13711;DHT22;6927;51.256;9.410;2022-08-19T08:14:37;27.00;1.00
13711;DHT22;6927;51.256;9.410;2022-08-19T08:17:04;27.10;1.00
13711;DHT22;6927;51.256;9.410;2022-08-19T08:19:30;27.40;1.00
13711;DHT22;6927;51.256;9.410;2022-08-19T08:21:57;27.30;1.00
13711;DHT22;6927;51.256;9.410;2022-08-19T08:24:25;27.20;1.00
13711;DHT22;6927;51.256;9.410;2022-08-19T08:26:51;27.40;1.00
13711;DHT22;6927;51.256;9.410;2022-08-19T08:29:16;27.30;1.00
13711;DHT22;6927;51.256;9.410;2022-08-19T08:31:43;27.70;1.00
13711;DHT22;6927;51.256;9.410;2022-08-19T08:34:09;28.10;1.00
13711;DHT22;6927;51.256;9.410;2022-08-19T08:36:40;28.60;1.00
13711;DHT22;6927;51.256;9.410;2022-08-19T08:39:11;29.10;1.00
13711;DHT22;6927;51.256;9.410;2022-08-19T08:41:58;29.50;1.00
13711;DHT22;6927;51.256;9.410;2022-08-19T08:44:52;30.10;1.00
13711;DHT22;6927;51.256;9.410;2022-08-19T08:47:20;30.30;1.00
13711;DHT22;6927;51.256;9.410;2022-08-19T08:50:13;30.40;1.00
13711;DHT22;6927;51.256;9.410;2022-08-19T08:52:46;30.50;1.00
13711;DHT22;6927;51.256;9.410;2022-08-19T08:55:18;30.80;1.00
13711;DHT22;6927;51.256;9.410;2022-08-19T09:00:37;31.20;1.00
13711;DHT22;6927;51.256;9.410;2022-08-19T09:03:06;31.10;1.00
13711;DHT22;6927;51.256;9.410;2022-08-19T09:05:47;30.40;1.00
13711;DHT22;6927;51.256;9.410;2022-08-19T09:08:56;28.50;1.00
13711;DHT22;6927;51.256;9.410;2022-08-19T09:16:48;25.70;1.00
13711;DHT22;6927;51.256;9.410;2022-08-19T09:19:15;25.80;1.00
13711;DHT22;6927;51.256;9.410;2022-08-19T09:21:43;25.70;1.00
13711;DHT22;6927;51.256;9.410;2022-08-19T09:24:08;25.50;1.00
13711;DHT22;6927;51.256;9.410;2022-08-19T09:26:34;25.60;1.00
13711;DHT22;6927;51.256;9.410;2022-08-19T09:29:00;25.40;1.00
13711;DHT22;6927;51.256;9.410;2022-08-19T09:31:29;25.30;1.00
13711;DHT22;6927;51.256;9.410;2022-08-19T09:33:55;25.10;1.00
13711;DHT22;6927;51.256;9.410;2022-08-19T09:36:25;24.60;1.00
13711;DHT22;6927;51.256;9.410;2022-08-19T09:38:52;24.60;1.00
13711;DHT22;6927;51.256;9.410;2022-08-19T09:41:21;24.80;1.00
13711;DHT22;6927;51.256;9.410;2022-08-19T09:43:49;25.10;1.00
13711;DHT22;6927;51.256;9.410;2022-08-19T09:46:19;25.20;1.00
13711;DHT22;6927;51.256;9.410;2022-08-19T09:48:47;25.20;1.00
13711;DHT22;6927;51.256;9.410;2022-08-19T09:51:19;25.50;1.00
13711;DHT22;6927;51.256;9.410;2022-08-19T09:53:46;25.60;1.00
13711;DHT22;6927;51.256;9.410;2022-08-19T09:56:13;25.70;1.00
13711;DHT22;6927;51.256;9.410;2022-08-19T09:58:39;25.50;1.00
13711;DHT22;6927;51.256;9.410;2022-08-19T10:01:08;25.00;1.00
13711;DHT22;6927;51.256;9.410;2022-08-19T10:03:36;24.80;1.00
13711;DHT22;6927;51.256;9.410;2022-08-19T10:06:04;24.70;1.00
13711;DHT22;6927;51.256;9.410;2022-08-19T10:08:36;24.80;1.00
13711;DHT22;6927;51.256;9.410;2022-08-19T10:11:03;24.90;1.00
13711;DHT22;6927;51.256;9.410;2022-08-19T10:13:31;24.80;1.00
13711;DHT22;6927;51.256;9.410;2022-08-19T10:16:04;24.90;1.00
13711;DHT22;6927;51.256;9.410;2022-08-19T10:18:30;24.70;1.00
13711;DHT22;6927;51.256;9.410;2022-08-19T10:21:13;24.80;1.00
13711;DHT22;6927;51.256;9.410;2022-08-19T10:23:42;24.80;1.00
13711;DHT22;6927;51.256;9.410;2022-08-19T10:26:14;24.80;1.00
13711;DHT22;6927;51.256;9.410;2022-08-19T10:28:40;25.00;1.00
13711;DHT22;6927;51.256;9.410;2022-08-19T10:31:15;25.10;1.00
13711;DHT22;6927;51.256;9.410;2022-08-19T10:33:41;25.30;1.00
13711;DHT22;6927;51.256;9.410;2022-08-19T10:36:12;25.60;1.00
13711;DHT22;6927;51.256;9.410;2022-08-19T10:38:40;25.60;1.00
13711;DHT22;6927;51.256;9.410;2022-08-19T10:41:27;25.70;1.00
13711;DHT22;6927;51.256;9.410;2022-08-19T10:43:55;25.80;1.00
13711;DHT22;6927;51.256;9.410;2022-08-19T10:46:23;25.90;1.00
13711;DHT22;6927;51.256;9.410;2022-08-19T10:48:49;25.70;1.00
13711;DHT22;6927;51.256;9.410;2022-08-19T10:51:16;25.60;1.00
13711;DHT22;6927;51.256;9.410;2022-08-19T10:54:01;25.60;1.00
13711;DHT22;6927;51.256;9.410;2022-08-19T10:56:27;25.60;1.00
13711;DHT22;6927;51.256;9.410;2022-08-19T10:59:11;25.80;1.00
13711;DHT22;6927;51.256;9.410;2022-08-19T11:01:39;26.10;1.00
13711;DHT22;6927;51.256;9.410;2022-08-19T11:04:05;26.00;1.00
13711;DHT22;6927;51.256;9.410;2022-08-19T11:06:34;25.70;1.00
13711;DHT22;6927;51.256;9.410;2022-08-19T11:08:59;25.50;1.00
13711;DHT22;6927;51.256;9.410;2022-08-19T11:11:26;25.40;1.00
13711;DHT22;6927;51.256;9.410;2022-08-19T11:13:51;25.50;1.00
13711;DHT22;6927;51.256;9.410;2022-08-19T11:16:20;26.00;1.00
13711;DHT22;6927;51.256;9.410;2022-08-19T11:18:55;26.40;1.00
13711;DHT22;6927;51.256;9.410;2022-08-19T11:21:27;27.00;1.00
13711;DHT22;6927;51.256;9.410;2022-08-19T11:23:55;27.60;1.00
13711;DHT22;6927;51.256;9.410;2022-08-19T11:26:22;27.90;1.00
13711;DHT22;6927;51.256;9.410;2022-08-19T11:28:49;27.90;1.00
13711;DHT22;6927;51.256;9.410;2022-08-19T11:31:20;28.30;1.00
13711;DHT22;6927;51.256;9.410;2022-08-19T11:33:46;28.50;1.00
13711;DHT22;6927;51.256;9.410;2022-08-19T11:36:15;29.40;1.00
13711;DHT22;6927;51.256;9.410;2022-08-19T11:38:41;29.80;1.00
13711;DHT22;6927;51.256;9.410;2022-08-19T11:41:07;30.70;1.00
13711;DHT22;6927;51.256;9.410;2022-08-19T11:43:36;31.50;1.00
13711;DHT22;6927;51.256;9.410;2022-08-19T11:46:07;31.50;1.00
13711;DHT22;6927;51.256;9.410;2022-08-19T11:48:33;30.90;1.00
13711;DHT22;6927;51.256;9.410;2022-08-19T11:50:59;30.10;1.00
13711;DHT22;6927;51.256;9.410;2022-08-19T11:53:24;30.30;1.00
13711;DHT22;6927;51.256;9.410;2022-08-19T11:55:52;30.60;1.00
13711;DHT22;6927;51.256;9.410;2022-08-19T11:58:21;30.80;1.00
13711;DHT22;6927;51.256;9.410;2022-08-19T12:00:46;31.30;1.00
13711;DHT22;6927;51.256;9.410;2022-08-19T12:03:13;31.10;1.00
13711;DHT22;6927;51.256;9.410;2022-08-19T12:05:40;30.40;1.00
13711;DHT22;6927;51.256;9.410;2022-08-19T12:08:06;30.90;1.00
13711;DHT22;6927;51.256;9.410;2022-08-19T12:10:34;31.20;1.00
13711;DHT22;6927;51.256;9.410;2022-08-19T12:13:00;31.00;1.00
13711;DHT22;6927;51.256;9.410;2022-08-19T12:15:26;30.70;1.00
13711;DHT22;6927;51.256;9.410;2022-08-19T12:17:54;30.10;1.00
13711;DHT22;6927;51.256;9.410;2022-08-19T12:20:22;29.00;1.00
13711;DHT22;6927;51.256;9.410;2022-08-19T12:22:49;28.40;1.00
13711;DHT22;6927;51.256;9.410;2022-08-19T12:25:14;28.70;1.00
13711;DHT22;6927;51.256;9.410;2022-08-19T12:27:40;29.40;1.00
13711;DHT22;6927;51.256;9.410;2022-08-19T12:30:08;29.80;1.00
13711;DHT22;6927;51.256;9.410;2022-08-19T12:32:34;30.00;1.00
13711;DHT22;6927;51.256;9.410;2022-08-19T12:35:00;30.10;1.00
13711;DHT22;6927;51.256;9.410;2022-08-19T12:37:26;29.40;1.00
13711;DHT22;6927;51.256;9.410;2022-08-19T12:39:52;29.10;1.00
13711;DHT22;6927;51.256;9.410;2022-08-19T12:42:17;28.70;1.00
13711;DHT22;6927;51.256;9.410;2022-08-19T12:44:44;28.40;1.00
13711;DHT22;6927;51.256;9.410;2022-08-19T12:47:12;28.40;1.00
13711;DHT22;6927;51.256;9.410;2022-08-19T12:49:39;28.50;1.00
13711;DHT22;6927;51.256;9.410;2022-08-19T12:52:06;28.50;1.00
13711;DHT22;6927;51.256;9.410;2022-08-19T12:54:32;28.50;1.00
13711;DHT22;6927;51.256;9.410;2022-08-19T12:56:58;28.40;1.00
13711;DHT22;6927;51.256;9.410;2022-08-19T12:59:25;28.00;1.00
13711;DHT22;6927;51.256;9.410;2022-08-19T13:01:50;27.70;1.00
13711;DHT22;6927;51.256;9.410;2022-08-19T13:04:16;27.70;1.00
13711;DHT22;6927;51.256;9.410;2022-08-19T13:06:42;27.50;1.00
13711;DHT22;6927;51.256;9.410;2022-08-19T13:09:08;27.50;1.00
13711;DHT22;6927;51.256;9.410;2022-08-19T13:11:34;27.70;1.00
13711;DHT22;6927;51.256;9.410;2022-08-19T13:14:01;27.90;1.00
13711;DHT22;6927;51.256;9.410;2022-08-19T13:16:27;27.60;1.00
13711;DHT22;6927;51.256;9.410;2022-08-19T13:18:54;27.70;1.00
13711;DHT22;6927;51.256;9.410;2022-08-19T13:21:24;27.60;1.00
13711;DHT22;6927;51.256;9.410;2022-08-19T13:23:50;27.30;1.00
13711;DHT22;6927;51.256;9.410;2022-08-19T13:26:16;27.10;1.00
13711;DHT22;6927;51.256;9.410;2022-08-19T13:28:44;27.10;1.00
13711;DHT22;6927;51.256;9.410;2022-08-19T13:31:31;27.10;1.00
13711;DHT22;6927;51.256;9.410;2022-08-19T13:34:17;27.00;1.00
13711;DHT22;6927;51.256;9.410;2022-08-19T13:36:43;27.00;1.00
13711;DHT22;6927;51.256;9.410;2022-08-19T13:39:09;27.00;1.00
13711;DHT22;6927;51.256;9.410;2022-08-19T13:41:35;27.10;1.00
13711;DHT22;6927;51.256;9.410;2022-08-19T13:44:02;27.00;1.00
13711;DHT22;6927;51.256;9.410;2022-08-19T13:46:27;26.80;1.00
13711;DHT22;6927;51.256;9.410;2022-08-19T13:48:55;26.90;1.00
13711;DHT22;6927;51.256;9.410;2022-08-19T13:51:21;26.80;1.00
13711;DHT22;6927;51.256;9.410;2022-08-19T13:53:47;26.80;1.00
13711;DHT22;6927;51.256;9.410;2022-08-19T13:56:16;26.70;1.00
13711;DHT22;6927;51.256;9.410;2022-08-19T13:58:42;26.70;1.00
13711;DHT22;6927;51.256;9.410;2022-08-19T14:01:08;26.60;1.00
13711;DHT22;6927;51.256;9.410;2022-08-19T14:03:34;26.50;1.00
13711;DHT22;6927;51.256;9.410;2022-08-19T14:06:00;26.50;1.00
13711;DHT22;6927;51.256;9.410;2022-08-19T14:08:25;26.60;1.00
13711;DHT22;6927;51.256;9.410;2022-08-19T14:10:53;26.60;1.00
13711;DHT22;6927;51.256;9.410;2022-08-19T14:13:21;26.80;1.00
13711;DHT22;6927;51.256;9.410;2022-08-19T14:15:47;27.00;1.00
13711;DHT22;6927;51.256;9.410;2022-08-19T14:18:14;27.20;1.00
13711;DHT22;6927;51.256;9.410;2022-08-19T14:20:41;27.40;1.00
13711;DHT22;6927;51.256;9.410;2022-08-19T14:23:06;27.70;1.00
13711;DHT22;6927;51.256;9.410;2022-08-19T14:25:32;27.80;1.00
13711;DHT22;6927;51.256;9.410;2022-08-19T14:27:58;27.70;1.00
13711;DHT22;6927;51.256;9.410;2022-08-19T14:30:32;27.60;1.00
13711;DHT22;6927;51.256;9.410;2022-08-19T14:32:59;27.50;1.00
13711;DHT22;6927;51.256;9.410;2022-08-19T14:35:26;27.30;1.00
13711;DHT22;6927;51.256;9.410;2022-08-19T14:37:53;27.20;1.00
13711;DHT22;6927;51.256;9.410;2022-08-19T14:40:22;27.30;1.00
13711;DHT22;6927;51.256;9.410;2022-08-19T14:42:52;27.20;1.00
13711;DHT22;6927;51.256;9.410;2022-08-19T14:45:20;27.20;1.00
13711;DHT22;6927;51.256;9.410;2022-08-19T14:47:46;27.20;1.00
13711;DHT22;6927;51.256;9.410;2022-08-19T14:50:12;27.00;1.00
13711;DHT22;6927;51.256;9.410;2022-08-19T14:52:37;27.00;1.00
13711;DHT22;6927;51.256;9.410;2022-08-19T14:55:04;27.10;1.00
13711;DHT22;6927;51.256;9.410;2022-08-19T14:57:30;27.20;1.00
13711;DHT22;6927;51.256;9.410;2022-08-19T14:59:56;27.30;1.00
13711;DHT22;6927;51.256;9.410;2022-08-19T15:02:22;27.30;1.00
13711;DHT22;6927;51.256;9.410;2022-08-19T15:04:48;27.50;1.00
13711;DHT22;6927;51.256;9.410;2022-08-19T15:07:13;27.60;1.00
13711;DHT22;6927;51.256;9.410;2022-08-19T15:09:39;27.40;1.00
13711;DHT22;6927;51.256;9.410;2022-08-19T15:12:05;27.50;1.00
13711;DHT22;6927;51.256;9.410;2022-08-19T15:14:30;27.50;1.00
13711;DHT22;6927;51.256;9.410;2022-08-19T15:17:03;27.60;1.00
13711;DHT22;6927;51.256;9.410;2022-08-19T15:19:30;27.50;1.00
13711;DHT22;6927;51.256;9.410;2022-08-19T15:21:56;27.50;1.00
13711;DHT22;6927;51.256;9.410;2022-08-19T15:24:22;27.30;1.00
13711;DHT22;6927;51.256;9.410;2022-08-19T15:26:51;27.20;1.00
13711;DHT22;6927;51.256;9.410;2022-08-19T15:29:17;27.20;1.00
13711;DHT22;6927;51.256;9.410;2022-08-19T15:31:42;27.00;1.00
13711;DHT22;6927;51.256;9.410;2022-08-19T15:34:08;26.80;1.00
13711;DHT22;6927;51.256;9.410;2022-08-19T15:36:35;26.70;1.00
13711;DHT22;6927;51.256;9.410;2022-08-19T15:39:01;26.60;1.00
13711;DHT22;6927;51.256;9.410;2022-08-19T15:41:29;26.70;1.00
13711;DHT22;6927;51.256;9.410;2022-08-19T15:44:04;26.80;1.00
13711;DHT22;6927;51.256;9.410;2022-08-19T15:46:33;26.80;1.00
13711;DHT22;6927;51.256;9.410;2022-08-19T15:48:59;27.00;1.00
13711;DHT22;6927;51.256;9.410;2022-08-19T15:51:25;27.00;1.00
13711;DHT22;6927;51.256;9.410;2022-08-19T15:53:52;27.10;1.00
13711;DHT22;6927;51.256;9.410;2022-08-19T15:56:17;27.10;1.00
13711;DHT22;6927;51.256;9.410;2022-08-19T15:58:43;27.10;1.00
13711;DHT22;6927;51.256;9.410;2022-08-19T16:01:28;26.90;1.00
13711;DHT22;6927;51.256;9.410;2022-08-19T16:04:12;26.60;1.00
13711;DHT22;6927;51.256;9.410;2022-08-19T16:06:57;26.50;1.00
13711;DHT22;6927;51.256;9.410;2022-08-19T16:09:27;26.50;1.00
13711;DHT22;6927;51.256;9.410;2022-08-19T16:11:58;26.50;1.00
13711;DHT22;6927;51.256;9.410;2022-08-19T16:14:25;26.40;1.00
13711;DHT22;6927;51.256;9.410;2022-08-19T16:16:51;26.20;1.00
13711;DHT22;6927;51.256;9.410;2022-08-19T16:19:18;26.30;1.00